createdAt,value
2018-02-04T00:00:26.972Z,3.96
2018-02-04T00:02:59.496Z,3.99
2018-02-04T00:05:31.983Z,4.09
2018-02-04T00:08:04.495Z,4.08
2018-02-04T00:10:37.312Z,4.12
2018-02-04T00:13:09.881Z,4.18
2018-02-04T00:15:42.684Z,4.13
2018-02-04T00:18:15.313Z,4.11
2018-02-04T00:20:47.807Z,4.07
2018-02-04T00:23:20.427Z,4.10
2018-02-04T00:25:54.270Z,3.98
2018-02-04T00:28:26.866Z,4.01
2018-02-04T00:30:59.399Z,4.00
2018-02-04T00:33:32.255Z,4.01
2018-02-04T00:36:04.825Z,4.01
2018-02-04T00:38:37.376Z,3.99
2018-02-04T00:41:09.902Z,3.98
2018-02-04T00:43:42.698Z,4.03
2018-02-04T00:46:15.266Z,4.07
2018-02-04T00:48:47.760Z,4.10
2018-02-04T00:51:20.323Z,4.11
2018-02-04T00:53:55.429Z,4.10
2018-02-04T00:56:28.326Z,4.14
2018-02-04T00:59:00.880Z,4.07
2018-02-04T01:01:33.579Z,4.10
2018-02-04T01:04:06.133Z,4.00
2018-02-04T01:06:38.780Z,3.99
2018-02-04T01:09:11.451Z,4.02
2018-02-04T01:11:44.147Z,4.05
2018-02-04T01:14:16.644Z,4.14
2018-02-04T01:16:49.578Z,4.19
2018-02-04T01:19:22.634Z,4.23
2018-02-04T01:21:55.216Z,4.17
2018-02-04T01:24:28.149Z,4.25
2018-02-04T01:27:00.913Z,4.19
2018-02-04T01:29:33.615Z,4.15
2018-02-04T01:32:06.251Z,4.08
2018-02-04T01:34:38.777Z,4.06
2018-02-04T01:37:11.294Z,4.07
2018-02-04T01:39:45.095Z,4.12
2018-02-04T01:42:17.958Z,4.11
2018-02-04T01:44:50.676Z,4.04
2018-02-04T01:47:24.238Z,4.10
2018-02-04T01:49:57.137Z,4.09
2018-02-04T01:52:29.720Z,4.05
2018-02-04T01:55:02.229Z,4.03
2018-02-04T01:57:34.749Z,4.03
2018-02-04T02:00:07.393Z,4.02
2018-02-04T02:02:40.114Z,4.06
2018-02-04T02:05:12.672Z,4.07
2018-02-04T02:07:45.256Z,4.10
2018-02-04T02:10:17.819Z,4.21
2018-02-04T02:12:50.411Z,4.20
2018-02-04T02:15:23.621Z,4.09
2018-02-04T02:17:56.247Z,4.09
2018-02-04T02:20:29.121Z,4.09
2018-02-04T02:23:01.788Z,4.05
2018-02-04T02:25:34.292Z,4.11
2018-02-04T02:28:06.815Z,4.11
2018-02-04T02:30:39.348Z,4.10
2018-02-04T02:33:11.868Z,4.16
2018-02-04T02:35:44.392Z,4.14
2018-02-04T02:38:16.919Z,4.13
2018-02-04T02:40:49.429Z,4.14
2018-02-04T02:43:21.966Z,4.03
2018-02-04T02:45:55.722Z,3.97
2018-02-04T02:48:28.253Z,3.97
2018-02-04T02:51:00.748Z,4.05
2018-02-04T02:53:33.263Z,4.12
2018-02-04T02:56:05.758Z,4.18
2018-02-04T02:58:38.262Z,4.20
2018-02-04T03:01:10.759Z,4.06
2018-02-04T03:03:43.294Z,4.02
2018-02-04T03:06:15.862Z,3.99
2018-02-04T03:08:48.381Z,4.04
2018-02-04T03:11:20.905Z,4.10
2018-02-04T03:13:53.759Z,4.13
2018-02-04T03:16:26.254Z,4.10
2018-02-04T03:18:58.788Z,4.02
2018-02-04T03:21:31.290Z,4.06
2018-02-04T03:24:03.805Z,3.97
2018-02-04T03:26:36.292Z,4.06
2018-02-04T03:29:08.817Z,4.06
2018-02-04T03:31:41.324Z,4.08
2018-02-04T03:34:13.858Z,4.10
2018-02-04T03:36:46.367Z,4.14
2018-02-04T03:39:18.892Z,4.17
2018-02-04T03:41:51.395Z,4.16
2018-02-04T03:44:24.167Z,4.21
2018-02-04T03:46:56.676Z,4.21
2018-02-04T03:49:29.194Z,4.14
2018-02-04T03:52:01.721Z,4.06
2018-02-04T03:54:34.212Z,4.08
2018-02-04T03:57:06.713Z,4.02
2018-02-04T03:59:39.214Z,4.04
2018-02-04T04:02:11.732Z,4.08
2018-02-04T04:04:44.238Z,4.11
2018-02-04T04:07:16.763Z,4.01
2018-02-04T04:09:49.260Z,3.97
2018-02-04T04:12:21.778Z,3.87
2018-02-04T04:14:54.919Z,3.95
2018-02-04T04:17:27.434Z,3.99
2018-02-04T04:19:59.942Z,4.03
2018-02-04T04:22:32.466Z,4.08
2018-02-04T04:25:04.958Z,4.03
2018-02-04T04:27:37.484Z,4.06
2018-02-04T04:30:09.988Z,4.09
2018-02-04T04:32:42.525Z,4.12
2018-02-04T04:35:15.049Z,4.07
2018-02-04T04:37:47.572Z,4.04
2018-02-04T04:40:20.069Z,4.04
2018-02-04T04:42:52.603Z,4.09
2018-02-04T04:45:25.102Z,4.07
2018-02-04T04:47:57.640Z,4.13
2018-02-04T04:50:30.141Z,4.16
2018-02-04T04:53:02.654Z,4.15
2018-02-04T04:55:35.150Z,4.07
2018-02-04T04:58:07.681Z,4.01
2018-02-04T05:00:40.177Z,3.95
2018-02-04T05:03:12.698Z,3.87
2018-02-04T05:05:45.197Z,3.88
2018-02-04T05:08:17.720Z,3.83
2018-02-04T05:10:50.224Z,3.81
2018-02-04T05:13:22.744Z,3.82
2018-02-04T05:15:55.243Z,3.82
2018-02-04T05:18:27.783Z,3.79
2018-02-04T05:21:00.268Z,3.83
2018-02-04T05:23:32.814Z,3.81
2018-02-04T05:26:05.334Z,3.77
2018-02-04T05:28:37.855Z,3.77
2018-02-04T05:31:10.342Z,3.74
2018-02-04T05:33:42.870Z,3.69
2018-02-04T05:36:15.381Z,3.67
2018-02-04T05:38:47.898Z,3.71
2018-02-04T05:41:20.410Z,3.67
2018-02-04T05:43:53.514Z,3.67
2018-02-04T05:46:26.011Z,3.69
2018-02-04T05:48:58.570Z,3.73
2018-02-04T05:51:31.078Z,3.77
2018-02-04T05:54:03.617Z,3.83
2018-02-04T05:56:36.098Z,3.83
2018-02-04T05:59:08.604Z,3.85
2018-02-04T06:01:41.098Z,3.85
2018-02-04T06:04:13.613Z,3.86
2018-02-04T06:06:46.118Z,3.86
2018-02-04T06:09:18.641Z,3.85
2018-02-04T06:11:51.141Z,3.87
2018-02-04T06:14:23.648Z,3.87
2018-02-04T06:16:56.149Z,3.89
2018-02-04T06:19:28.657Z,3.91
2018-02-04T06:22:01.202Z,3.92
2018-02-04T06:24:33.728Z,3.89
2018-02-04T06:27:06.233Z,3.91
2018-02-04T06:29:38.753Z,3.93
2018-02-04T06:32:11.254Z,3.95
2018-02-04T06:34:43.778Z,3.98
2018-02-04T06:37:16.271Z,4.00
2018-02-04T06:39:48.796Z,4.03
2018-02-04T06:42:21.293Z,4.03
2018-02-04T06:44:53.800Z,4.03
2018-02-04T06:47:26.335Z,4.05
2018-02-04T06:49:58.844Z,3.96
2018-02-04T06:52:35.546Z,3.98
2018-02-04T06:55:08.074Z,3.98
2018-02-04T06:57:40.582Z,4.04
2018-02-04T07:00:13.102Z,4.03
2018-02-04T07:02:45.591Z,4.02
2018-02-04T07:05:18.095Z,3.94
2018-02-04T07:07:50.586Z,3.94
2018-02-04T07:10:24.088Z,3.87
2018-02-04T07:12:56.628Z,3.89
2018-02-04T07:15:29.149Z,3.91
2018-02-04T07:18:01.677Z,3.90
2018-02-04T07:20:34.189Z,3.90
2018-02-04T07:23:06.709Z,3.91
2018-02-04T07:25:39.209Z,3.95
2018-02-04T07:28:11.723Z,3.96
2018-02-04T07:30:44.232Z,4.02
2018-02-04T07:33:16.746Z,3.98
2018-02-04T07:35:49.240Z,4.02
2018-02-04T07:38:21.747Z,3.99
2018-02-04T07:40:54.282Z,4.00
2018-02-04T07:43:26.803Z,4.02
2018-02-04T07:45:59.301Z,4.08
2018-02-04T07:48:31.809Z,4.16
2018-02-04T07:51:04.308Z,4.22
2018-02-04T07:53:36.863Z,4.10
2018-02-04T07:56:09.364Z,4.12
2018-02-04T07:58:41.881Z,4.15
2018-02-04T08:03:45.985Z,4.31
2018-02-04T08:06:18.545Z,4.29
2018-02-04T08:08:51.079Z,4.24
2018-02-04T08:11:23.578Z,4.17
2018-02-04T08:13:56.104Z,4.17
2018-02-04T08:16:28.600Z,4.23
2018-02-04T08:19:01.124Z,4.17
2018-02-04T08:21:33.628Z,4.16
2018-02-04T08:24:06.156Z,4.22
2018-02-04T08:26:38.654Z,4.27
2018-02-04T08:29:11.186Z,4.33
2018-02-04T08:31:43.705Z,4.42
2018-02-04T08:34:16.229Z,4.59
2018-02-04T08:36:48.726Z,4.74
2018-02-04T08:39:21.300Z,4.65
2018-02-04T08:41:53.810Z,4.88
2018-02-04T08:44:26.345Z,4.95
2018-02-04T08:46:58.844Z,4.96
2018-02-04T08:49:31.361Z,5.10
2018-02-04T08:52:03.854Z,5.08
2018-02-04T08:54:36.382Z,4.94
2018-02-04T08:57:08.899Z,4.85
2018-02-04T08:59:41.456Z,4.77
2018-02-04T09:02:13.963Z,4.73
2018-02-04T09:04:46.492Z,4.61
2018-02-04T09:07:18.992Z,4.57
2018-02-04T09:09:51.511Z,4.54
2018-02-04T09:12:24.018Z,4.55
2018-02-04T09:14:56.557Z,4.66
2018-02-04T09:17:29.048Z,4.79
2018-02-04T09:20:01.576Z,4.93
2018-02-04T09:22:34.069Z,5.15
2018-02-04T09:25:06.588Z,5.22
2018-02-04T09:27:39.096Z,5.20
2018-02-04T09:30:11.672Z,5.19
2018-02-04T09:32:44.206Z,5.28
2018-02-04T09:35:16.794Z,5.33
2018-02-04T09:37:49.382Z,5.42
2018-02-04T09:40:21.992Z,5.48
2018-02-04T09:42:54.558Z,5.36
2018-02-04T09:45:28.150Z,5.39
2018-02-04T09:48:00.666Z,5.30
2018-02-04T09:50:33.227Z,5.35
2018-02-04T09:53:05.717Z,5.54
2018-02-04T09:55:38.232Z,5.61
2018-02-04T09:58:12.897Z,5.50
2018-02-04T10:00:45.413Z,5.47
2018-02-04T10:03:17.908Z,5.41
2018-02-04T10:05:50.446Z,5.56
2018-02-04T10:08:22.933Z,5.64
2018-02-04T10:10:55.449Z,5.71
2018-02-04T10:13:27.934Z,5.63
2018-02-04T10:16:00.452Z,5.51
2018-02-04T10:18:32.971Z,5.57
2018-02-04T10:21:05.537Z,5.53
2018-02-04T10:23:38.042Z,5.50
2018-02-04T10:26:10.576Z,5.39
2018-02-04T10:28:43.079Z,5.46
2018-02-04T10:31:15.592Z,5.57
2018-02-04T10:33:48.083Z,5.76
2018-02-04T10:36:20.680Z,5.69
2018-02-04T10:38:53.132Z,5.66
2018-02-04T10:41:25.655Z,5.50
2018-02-04T10:43:58.157Z,5.42
2018-02-04T10:46:30.683Z,5.27
2018-02-04T10:49:03.218Z,5.40
2018-02-04T10:51:41.409Z,5.47
2018-02-04T10:54:13.940Z,5.43
2018-02-04T10:56:46.454Z,5.65
2018-02-04T10:59:18.968Z,5.64
2018-02-04T11:01:51.477Z,5.45
2018-02-04T11:04:24.037Z,5.41
2018-02-04T11:06:56.536Z,5.45
2018-02-04T11:09:29.075Z,5.52
2018-02-04T11:12:01.570Z,5.58
2018-02-04T11:14:34.087Z,5.68
2018-02-04T11:17:06.580Z,5.50
2018-02-04T11:19:39.103Z,5.46
2018-02-04T11:22:11.596Z,5.34
2018-02-04T11:24:44.146Z,5.24
2018-02-04T11:27:16.638Z,5.25
2018-02-04T11:29:49.212Z,5.37
2018-02-04T11:32:24.056Z,5.41
2018-02-04T11:34:56.562Z,5.45
2018-02-04T11:37:29.063Z,5.54
2018-02-04T11:40:01.588Z,5.79
2018-02-04T11:42:34.079Z,5.95
2018-02-04T11:45:06.621Z,5.96
2018-02-04T11:47:39.115Z,5.90
2018-02-04T11:50:11.627Z,5.90
2018-02-04T11:52:44.117Z,5.87
2018-02-04T11:55:16.638Z,5.78
2018-02-04T11:57:49.128Z,5.92
2018-02-04T12:00:21.892Z,5.91
2018-02-04T12:02:54.384Z,5.90
2018-02-04T12:05:26.979Z,5.91
2018-02-04T12:07:59.523Z,5.87
2018-02-04T12:10:32.045Z,5.67
2018-02-04T12:13:04.526Z,5.69
2018-02-04T12:15:37.041Z,5.53
2018-02-04T12:18:09.545Z,5.42
2018-02-04T12:20:42.143Z,5.44
2018-02-04T12:23:14.634Z,5.33
2018-02-04T12:25:47.218Z,5.14
2018-02-04T12:28:19.740Z,5.15
2018-02-04T12:30:52.299Z,5.09
2018-02-04T12:33:24.842Z,5.22
2018-02-04T12:35:58.668Z,5.40
2018-02-04T12:38:31.485Z,5.56
2018-02-04T12:41:04.432Z,5.48
2018-02-04T12:43:37.324Z,5.60
2018-02-04T12:46:10.053Z,5.71
2018-02-04T12:48:42.927Z,5.70
2018-02-04T12:51:15.656Z,5.69
2018-02-04T12:53:48.593Z,5.68
2018-02-04T12:56:21.257Z,5.65
2018-02-04T12:58:54.321Z,5.75
2018-02-04T13:01:27.007Z,5.77
2018-02-04T13:03:59.906Z,5.66
2018-02-04T13:06:32.625Z,5.62
2018-02-04T13:09:05.260Z,5.64
2018-02-04T13:11:38.007Z,5.71
2018-02-04T13:14:10.677Z,5.80
2018-02-04T13:16:43.677Z,5.86
2018-02-04T13:19:16.286Z,5.97
2018-02-04T13:21:49.327Z,6.04
2018-02-04T13:24:21.909Z,6.10
2018-02-04T13:26:55.372Z,6.06
2018-02-04T13:29:28.246Z,6.03
2018-02-04T13:32:00.947Z,5.99
2018-02-04T13:34:33.804Z,5.98
2018-02-04T13:37:06.622Z,5.88
2018-02-04T13:39:39.211Z,5.77
2018-02-04T13:42:11.923Z,5.71
2018-02-04T13:44:44.757Z,5.67
2018-02-04T13:47:17.383Z,5.67
2018-02-04T13:49:50.166Z,5.74
2018-02-04T13:52:22.950Z,5.66
2018-02-04T13:54:55.930Z,5.65
2018-02-04T13:57:28.498Z,5.64
2018-02-04T14:00:01.080Z,5.69
2018-02-04T14:02:33.623Z,5.66
2018-02-04T14:05:06.183Z,5.77
2018-02-04T14:07:38.773Z,5.93
2018-02-04T14:10:11.327Z,5.99
2018-02-04T14:12:44.473Z,6.03
2018-02-04T14:15:17.235Z,6.09
2018-02-04T14:17:49.906Z,5.95
2018-02-04T14:20:22.799Z,5.97
2018-02-04T14:22:55.510Z,5.99
2018-02-04T14:25:28.278Z,5.95
2018-02-04T14:28:01.132Z,5.90
2018-02-04T14:30:33.797Z,5.91
2018-02-04T14:33:07.959Z,5.87
2018-02-04T14:35:40.893Z,5.81
2018-02-04T14:38:13.493Z,5.74
2018-02-04T14:40:46.522Z,5.79
2018-02-04T14:43:19.141Z,5.86
2018-02-04T14:45:51.676Z,5.88
2018-02-04T14:48:24.175Z,5.93
2018-02-04T14:50:57.164Z,5.98
2018-02-04T14:53:29.848Z,5.95
2018-02-04T14:56:02.412Z,5.88
2018-02-04T14:58:34.998Z,5.84
2018-02-04T15:01:07.655Z,5.91
2018-02-04T15:03:40.321Z,5.94
2018-02-04T15:06:13.024Z,5.94
2018-02-04T15:08:45.658Z,5.86
2018-02-04T15:11:18.174Z,5.81
2018-02-04T15:13:51.608Z,5.79
2018-02-04T15:16:24.412Z,5.84
2018-02-04T15:18:57.056Z,5.81
2018-02-04T15:21:29.564Z,5.72
2018-02-04T15:24:02.338Z,5.72
2018-02-04T15:26:35.161Z,5.62
2018-02-04T15:29:07.673Z,5.61
2018-02-04T15:31:40.186Z,5.62
2018-02-04T15:34:12.704Z,5.56
2018-02-04T15:36:45.225Z,5.56
2018-02-04T15:39:17.724Z,5.53
2018-02-04T15:41:50.260Z,5.52
2018-02-04T15:44:22.756Z,5.49
2018-02-04T15:46:55.278Z,5.53
2018-02-04T15:49:27.779Z,5.56
2018-02-04T15:52:00.341Z,5.59
2018-02-04T15:54:32.831Z,5.62
2018-02-04T15:57:05.348Z,5.66
2018-02-04T15:59:37.844Z,5.62
2018-02-04T16:02:10.367Z,5.70
2018-02-04T16:04:42.869Z,5.53
2018-02-04T16:07:15.398Z,5.44
2018-02-04T16:09:47.899Z,5.40
2018-02-04T16:12:20.438Z,5.45
2018-02-04T16:14:52.937Z,5.47
2018-02-04T16:17:25.452Z,5.45
2018-02-04T16:19:57.972Z,5.49
2018-02-04T16:22:30.491Z,5.41
2018-02-04T16:25:02.992Z,5.38
2018-02-04T16:27:35.513Z,5.47
2018-02-04T16:30:08.021Z,5.54
2018-02-04T16:32:40.540Z,5.37
2018-02-04T16:35:13.040Z,5.53
2018-02-04T16:37:45.564Z,5.62
2018-02-04T16:40:18.068Z,5.60
2018-02-04T16:42:50.585Z,5.58
2018-02-04T16:45:23.127Z,5.51
2018-02-04T16:47:55.685Z,5.49
2018-02-04T16:50:28.191Z,5.52
2018-02-04T16:53:00.705Z,5.59
2018-02-04T16:55:33.211Z,5.65
2018-02-04T16:58:05.737Z,5.65
2018-02-04T17:00:38.236Z,5.66
2018-02-04T17:03:10.776Z,5.64
2018-02-04T17:05:43.283Z,5.68
2018-02-04T17:08:15.817Z,5.69
2018-02-04T17:10:48.311Z,5.71
2018-02-04T17:13:20.831Z,5.66
2018-02-04T17:15:53.336Z,5.65
2018-02-04T17:18:25.883Z,5.50
2018-02-04T17:20:58.373Z,5.57
2018-02-04T17:23:30.896Z,5.61
2018-02-04T17:26:03.409Z,5.72
2018-02-04T17:28:35.930Z,5.71
2018-02-04T17:31:08.450Z,5.74
2018-02-04T17:33:40.977Z,5.65
2018-02-04T17:36:13.485Z,5.66
2018-02-04T17:38:46.011Z,5.68
2018-02-04T17:41:18.525Z,5.73
2018-02-04T17:43:51.119Z,5.65
2018-02-04T17:46:23.689Z,5.62
2018-02-04T17:48:56.241Z,5.66
2018-02-04T17:51:28.810Z,5.69
2018-02-04T17:54:01.352Z,5.70
2018-02-04T17:56:33.959Z,5.68
2018-02-04T17:59:06.529Z,5.63
2018-02-04T18:01:39.128Z,5.73
2018-02-04T18:04:11.663Z,5.65
2018-02-04T18:06:44.268Z,5.68
2018-02-04T18:09:16.794Z,5.66
2018-02-04T18:11:49.372Z,5.75
2018-02-04T18:14:21.847Z,5.61
2018-02-04T18:16:54.385Z,5.72
2018-02-04T18:19:26.889Z,5.63
2018-02-04T18:21:59.419Z,5.75
2018-02-04T18:24:31.918Z,5.79
2018-02-04T18:27:04.435Z,5.85
2018-02-04T18:29:36.950Z,5.91
2018-02-04T18:32:09.487Z,5.93
2018-02-04T18:34:42.046Z,5.93
2018-02-04T18:37:14.784Z,5.96
2018-02-04T18:39:47.284Z,5.98
2018-02-04T18:42:19.884Z,5.95
2018-02-04T18:44:52.435Z,6.04
2018-02-04T18:47:25.005Z,5.91
2018-02-04T18:49:57.524Z,5.89
2018-02-04T18:52:30.115Z,5.91
2018-02-04T18:55:02.675Z,5.87
2018-02-04T18:57:35.225Z,5.90
2018-02-04T19:00:07.782Z,5.80
2018-02-04T19:02:40.298Z,5.87
2018-02-04T19:05:12.796Z,5.88
2018-02-04T19:07:45.388Z,5.82
2018-02-04T19:10:17.951Z,5.87
2018-02-04T19:12:50.519Z,5.85
2018-02-04T19:15:23.105Z,5.83
2018-02-04T19:17:55.689Z,5.83
2018-02-04T19:20:28.244Z,5.81
2018-02-04T19:23:00.771Z,5.77
2018-02-04T19:25:33.330Z,5.68
2018-02-04T19:28:05.909Z,5.59
2018-02-04T19:30:38.423Z,5.67
2018-02-04T19:33:10.966Z,5.67
2018-02-04T19:35:43.475Z,5.66
2018-02-04T19:38:16.015Z,5.56
2018-02-04T19:40:48.523Z,5.60
2018-02-04T19:43:21.107Z,5.72
2018-02-04T19:45:53.621Z,5.67
2018-02-04T19:48:26.159Z,5.38
2018-02-04T19:50:58.678Z,5.60
2018-02-04T19:53:31.816Z,5.66
2018-02-04T19:56:04.399Z,5.68
2018-02-04T19:58:37.498Z,5.81
2018-02-04T20:01:10.152Z,5.93
2018-02-04T20:03:43.077Z,5.74
2018-02-04T20:06:16.032Z,5.81
2018-02-04T20:08:48.961Z,5.81
2018-02-04T20:11:21.520Z,5.78
2018-02-04T20:13:54.029Z,5.69
2018-02-04T20:16:26.525Z,5.58
2018-02-04T20:18:59.044Z,5.68
2018-02-04T20:21:31.562Z,5.68
2018-02-04T20:24:04.068Z,5.69
2018-02-04T20:26:36.611Z,5.53
2018-02-04T20:29:09.120Z,5.66
2018-02-04T20:31:41.629Z,5.69
2018-02-04T20:34:26.024Z,5.34
2018-02-04T20:36:58.522Z,5.37
2018-02-04T20:39:31.047Z,5.54
2018-02-04T20:42:03.551Z,5.62
2018-02-04T20:44:36.065Z,5.32
2018-02-04T20:47:08.582Z,5.60
2018-02-04T20:49:41.112Z,5.36
2018-02-04T20:52:13.635Z,5.52
2018-02-04T20:54:46.132Z,5.42
2018-02-04T20:57:18.624Z,5.37
2018-02-04T20:59:51.144Z,5.47
2018-02-04T21:02:23.661Z,5.40
2018-02-04T21:04:56.173Z,5.35
2018-02-04T21:07:28.692Z,5.25
2018-02-04T21:10:01.197Z,5.24
2018-02-04T21:12:34.050Z,5.33
2018-02-04T21:15:07.577Z,5.37
2018-02-04T21:17:40.084Z,5.35
2018-02-04T21:20:12.583Z,5.35
2018-02-04T21:22:45.092Z,5.38
2018-02-04T21:25:17.607Z,5.49
2018-02-04T21:27:50.106Z,5.36
2018-02-04T21:30:22.623Z,5.34
2018-02-04T21:32:55.167Z,5.37
2018-02-04T21:35:27.677Z,5.23
2018-02-04T21:38:00.203Z,5.31
2018-02-04T21:40:32.693Z,5.41
2018-02-04T21:43:05.230Z,5.45
2018-02-04T21:45:37.733Z,5.39
2018-02-04T21:48:10.259Z,5.30
2018-02-04T21:50:42.782Z,5.34
2018-02-04T21:53:15.319Z,5.27
2018-02-04T21:55:47.862Z,5.30
2018-02-04T21:58:20.375Z,5.19
2018-02-04T22:00:52.879Z,5.22
2018-02-04T22:03:25.404Z,5.32
2018-02-04T22:05:57.896Z,5.27
2018-02-04T22:08:30.402Z,5.15
2018-02-04T22:11:02.899Z,5.15
2018-02-04T22:13:35.438Z,5.24
2018-02-04T22:16:07.946Z,5.22
2018-02-04T22:18:40.451Z,5.23
2018-02-04T22:21:12.965Z,5.21
2018-02-04T22:23:45.482Z,5.17
2018-02-04T22:26:17.992Z,5.26
2018-02-04T22:28:50.487Z,5.10
2018-02-04T22:31:23.049Z,5.00
2018-02-04T22:33:55.560Z,5.20
2018-02-04T22:36:28.070Z,5.14
2018-02-04T22:39:00.576Z,5.18
2018-02-04T22:41:33.071Z,5.24
2018-02-04T22:44:05.560Z,5.23
2018-02-04T22:46:38.068Z,5.22
2018-02-04T22:49:10.568Z,5.03
2018-02-04T22:51:43.077Z,5.11
2018-02-04T22:54:15.584Z,4.78
2018-02-04T22:56:48.082Z,4.71
2018-02-04T22:59:20.594Z,4.85
2018-02-04T23:01:53.113Z,5.03
2018-02-04T23:04:25.660Z,4.93
2018-02-04T23:06:58.176Z,5.00
2018-02-04T23:09:30.697Z,5.17
2018-02-04T23:12:03.201Z,5.10
2018-02-04T23:14:35.709Z,5.02
2018-02-04T23:17:08.220Z,5.18
2018-02-04T23:19:40.728Z,5.14
2018-02-04T23:22:13.226Z,5.09
2018-02-04T23:24:45.740Z,5.09
2018-02-04T23:27:18.241Z,5.22
2018-02-04T23:29:50.742Z,5.20
2018-02-04T23:32:23.264Z,5.36
2018-02-04T23:34:55.785Z,5.32
2018-02-04T23:37:28.287Z,5.21
2018-02-04T23:40:00.797Z,5.19
2018-02-04T23:42:33.317Z,5.13
2018-02-04T23:45:05.817Z,5.06
2018-02-04T23:47:38.325Z,5.02
2018-02-04T23:50:10.836Z,4.97
2018-02-04T23:52:43.333Z,5.04
2018-02-04T23:55:15.837Z,5.04
2018-02-04T23:57:48.350Z,4.96
